sensor_id;sensor_type;location;lat;lon;timestamp;pressure;altitude;pressure_sealevel;temperature;humidity
29163;BME280;20331;53.144;8.208;2023-02-08T00:01:16;104234.06;;;0.74;86.75
29163;BME280;20331;53.144;8.208;2023-02-08T00:11:39;104241.31;;;0.68;86.50
29163;BME280;20331;53.144;8.208;2023-02-08T00:22:00;104240.91;;;0.62;86.68
29163;BME280;20331;53.144;8.208;2023-02-08T00:32:21;104219.66;;;0.62;87.17
29163;BME280;20331;53.144;8.208;2023-02-08T00:42:43;104221.13;;;0.58;87.14
29163;BME280;20331;53.144;8.208;2023-02-08T00:53:04;104226.81;;;0.54;87.04
29163;BME280;20331;53.144;8.208;2023-02-08T01:03:26;104210.53;;;0.52;87.16
29163;BME280;20331;53.144;8.208;2023-02-08T01:13:47;104206.13;;;0.50;85.82
29163;BME280;20331;53.144;8.208;2023-02-08T01:24:09;104207.56;;;0.46;86.80
29163;BME280;20331;53.144;8.208;2023-02-08T01:34:30;104205.59;;;0.42;85.08
29163;BME280;20331;53.144;8.208;2023-02-08T01:55:33;104220.50;;;0.36;86.08
29163;BME280;20331;53.144;8.208;2023-02-08T02:06:07;104211.47;;;0.28;85.78
29163;BME280;20331;53.144;8.208;2023-02-08T02:16:31;104205.88;;;0.21;85.37
29163;BME280;20331;53.144;8.208;2023-02-08T02:58:18;104185.53;;;-0.04;85.83
29163;BME280;20331;53.144;8.208;2023-02-08T03:08:52;104179.38;;;-0.08;85.53
29163;BME280;20331;53.144;8.208;2023-02-08T03:19:19;104173.38;;;-0.08;86.83
29163;BME280;20331;53.144;8.208;2023-02-08T03:29:45;104185.31;;;-0.07;85.94
29163;BME280;20331;53.144;8.208;2023-02-08T03:40:22;104201.47;;;-0.07;85.88
29163;BME280;20331;53.144;8.208;2023-02-08T03:50:46;104208.91;;;-0.10;85.68
29163;BME280;20331;53.144;8.208;2023-02-08T04:01:22;104205.06;;;-0.16;86.09
29163;BME280;20331;53.144;8.208;2023-02-08T04:11:45;104205.94;;;-0.16;86.24
29163;BME280;20331;53.144;8.208;2023-02-08T04:22:07;104210.59;;;-0.22;84.85
29163;BME280;20331;53.144;8.208;2023-02-08T04:32:28;104192.03;;;-0.21;86.38
29163;BME280;20331;53.144;8.208;2023-02-08T04:42:49;104199.34;;;-0.25;84.69
29163;BME280;20331;53.144;8.208;2023-02-08T04:53:11;104201.00;;;-0.26;84.73
29163;BME280;20331;53.144;8.208;2023-02-08T05:03:32;104204.22;;;-0.28;85.08
29163;BME280;20331;53.144;8.208;2023-02-08T05:13:54;104196.19;;;-0.34;85.31
29163;BME280;20331;53.144;8.208;2023-02-08T05:24:15;104196.53;;;-0.41;84.67
29163;BME280;20331;53.144;8.208;2023-02-08T05:34:37;104179.09;;;-0.48;83.39
29163;BME280;20331;53.144;8.208;2023-02-08T05:44:58;104166.94;;;-0.52;83.16
29163;BME280;20331;53.144;8.208;2023-02-08T05:55:20;104170.84;;;-0.57;84.43
29163;BME280;20331;53.144;8.208;2023-02-08T06:05:41;104171.59;;;-0.58;83.70
29163;BME280;20331;53.144;8.208;2023-02-08T06:16:03;104172.03;;;-0.52;83.52
29163;BME280;20331;53.144;8.208;2023-02-08T06:26:25;104196.56;;;-0.53;83.53
29163;BME280;20331;53.144;8.208;2023-02-08T06:36:46;104184.63;;;-0.54;84.54
29163;BME280;20331;53.144;8.208;2023-02-08T06:47:07;104182.84;;;-0.55;84.30
29163;BME280;20331;53.144;8.208;2023-02-08T06:57:29;104197.25;;;-0.55;83.74
29163;BME280;20331;53.144;8.208;2023-02-08T07:07:50;104190.94;;;-0.60;83.91
29163;BME280;20331;53.144;8.208;2023-02-08T07:18:12;104190.09;;;-0.61;84.46
29163;BME280;20331;53.144;8.208;2023-02-08T07:28:34;104182.75;;;-0.56;85.00
29163;BME280;20331;53.144;8.208;2023-02-08T07:38:55;104172.03;;;-0.52;84.21
29163;BME280;20331;53.144;8.208;2023-02-08T07:49:17;104172.84;;;-0.40;84.93
29163;BME280;20331;53.144;8.208;2023-02-08T07:59:38;104168.63;;;-0.28;85.22
29163;BME280;20331;53.144;8.208;2023-02-08T08:09:59;104155.72;;;-0.18;85.34
29163;BME280;20331;53.144;8.208;2023-02-08T08:20:21;104167.31;;;-0.10;85.85
29163;BME280;20331;53.144;8.208;2023-02-08T08:30:43;104155.00;;;-0.04;85.07
29163;BME280;20331;53.144;8.208;2023-02-08T08:41:06;104159.03;;;0.06;84.55
29163;BME280;20331;53.144;8.208;2023-02-08T08:51:27;104155.03;;;0.09;84.43
29163;BME280;20331;53.144;8.208;2023-02-08T09:01:48;104147.03;;;0.16;84.79
29163;BME280;20331;53.144;8.208;2023-02-08T09:12:10;104140.19;;;0.28;83.82
29163;BME280;20331;53.144;8.208;2023-02-08T09:22:31;104146.28;;;0.43;82.94
29163;BME280;20331;53.144;8.208;2023-02-08T09:32:53;104150.78;;;0.60;82.60
29163;BME280;20331;53.144;8.208;2023-02-08T09:43:21;104168.72;;;0.75;82.26
29163;BME280;20331;53.144;8.208;2023-02-08T09:53:45;104175.06;;;0.94;80.58
29163;BME280;20331;53.144;8.208;2023-02-08T10:35:46;104118.75;;;1.60;79.86
29163;BME280;20331;53.144;8.208;2023-02-08T11:07:17;104126.47;;;2.18;78.29
29163;BME280;20331;53.144;8.208;2023-02-08T11:17:39;104118.91;;;2.34;77.85
29163;BME280;20331;53.144;8.208;2023-02-08T11:28:00;104104.75;;;2.55;76.85
29163;BME280;20331;53.144;8.208;2023-02-08T11:38:22;104084.56;;;2.90;71.96
29163;BME280;20331;53.144;8.208;2023-02-08T11:48:49;104083.78;;;3.08;72.17
29163;BME280;20331;53.144;8.208;2023-02-08T12:41:20;103969.94;;;4.74;60.71
29163;BME280;20331;53.144;8.208;2023-02-08T12:51:51;103961.09;;;4.86;63.78
29163;BME280;20331;53.144;8.208;2023-02-08T13:02:49;103929.59;;;5.09;61.62
29163;BME280;20331;53.144;8.208;2023-02-08T13:24:03;103898.44;;;5.42;59.44
29163;BME280;20331;53.144;8.208;2023-02-08T13:34:34;103880.00;;;5.52;60.93
29163;BME280;20331;53.144;8.208;2023-02-08T13:44:56;103872.31;;;5.52;55.52
29163;BME280;20331;53.144;8.208;2023-02-08T14:05:51;103871.72;;;5.59;57.11
29163;BME280;20331;53.144;8.208;2023-02-08T14:26:42;103846.56;;;5.93;56.55
29163;BME280;20331;53.144;8.208;2023-02-08T14:37:24;103830.63;;;5.81;57.40
29163;BME280;20331;53.144;8.208;2023-02-08T14:58:09;103797.63;;;5.90;54.63
29163;BME280;20331;53.144;8.208;2023-02-08T15:08:33;103783.97;;;5.91;57.23
29163;BME280;20331;53.144;8.208;2023-02-08T15:18:54;103788.50;;;5.76;56.79
29163;BME280;20331;53.144;8.208;2023-02-08T15:29:17;103784.88;;;5.71;57.51
29163;BME280;20331;53.144;8.208;2023-02-08T15:39:39;103780.78;;;5.54;58.72
29163;BME280;20331;53.144;8.208;2023-02-08T15:50:01;103752.84;;;5.39;61.50
29163;BME280;20331;53.144;8.208;2023-02-08T16:00:23;103749.47;;;5.18;62.02
29163;BME280;20331;53.144;8.208;2023-02-08T16:10:46;103731.59;;;4.99;60.87
29163;BME280;20331;53.144;8.208;2023-02-08T16:21:19;103717.56;;;4.91;60.35
29163;BME280;20331;53.144;8.208;2023-02-08T16:31:43;103721.59;;;4.84;60.81
29163;BME280;20331;53.144;8.208;2023-02-08T16:42:06;103723.53;;;4.69;63.45
29163;BME280;20331;53.144;8.208;2023-02-08T16:52:40;103690.34;;;4.52;63.31
29163;BME280;20331;53.144;8.208;2023-02-08T17:03:02;103694.66;;;4.32;65.11
29163;BME280;20331;53.144;8.208;2023-02-08T17:13:23;103693.94;;;4.16;65.41
29163;BME280;20331;53.144;8.208;2023-02-08T17:23:47;103701.53;;;4.14;67.12
29163;BME280;20331;53.144;8.208;2023-02-08T17:34:08;103682.03;;;3.97;67.50
29163;BME280;20331;53.144;8.208;2023-02-08T17:44:31;103676.25;;;3.82;67.05
29163;BME280;20331;53.144;8.208;2023-02-08T17:54:53;103662.09;;;3.71;68.41
29163;BME280;20331;53.144;8.208;2023-02-08T18:05:15;103647.84;;;3.57;69.43
29163;BME280;20331;53.144;8.208;2023-02-08T18:15:37;103650.09;;;3.51;70.51
29163;BME280;20331;53.144;8.208;2023-02-08T18:26:02;103637.56;;;3.38;70.03
29163;BME280;20331;53.144;8.208;2023-02-08T18:36:24;103633.38;;;3.21;71.58
29163;BME280;20331;53.144;8.208;2023-02-08T18:46:46;103626.03;;;3.09;71.25
29163;BME280;20331;53.144;8.208;2023-02-08T18:57:08;103617.13;;;3.01;71.52
29163;BME280;20331;53.144;8.208;2023-02-08T19:07:33;103612.50;;;2.92;71.13
29163;BME280;20331;53.144;8.208;2023-02-08T19:17:55;103606.72;;;2.79;72.27
29163;BME280;20331;53.144;8.208;2023-02-08T19:28:18;103607.53;;;2.78;72.02
29163;BME280;20331;53.144;8.208;2023-02-08T19:38:40;103610.63;;;2.71;72.84
29163;BME280;20331;53.144;8.208;2023-02-08T19:49:02;103597.19;;;2.57;72.90
29163;BME280;20331;53.144;8.208;2023-02-08T19:59:24;103583.16;;;2.49;73.49
29163;BME280;20331;53.144;8.208;2023-02-08T20:09:46;103590.63;;;2.45;73.35
29163;BME280;20331;53.144;8.208;2023-02-08T20:20:08;103579.97;;;2.36;74.22
29163;BME280;20331;53.144;8.208;2023-02-08T20:30:29;103573.84;;;2.32;73.83
29163;BME280;20331;53.144;8.208;2023-02-08T20:40:59;103571.38;;;2.16;73.32
29163;BME280;20331;53.144;8.208;2023-02-08T20:51:21;103579.81;;;2.15;73.16
29163;BME280;20331;53.144;8.208;2023-02-08T21:01:42;103566.25;;;2.16;73.65
29163;BME280;20331;53.144;8.208;2023-02-08T21:12:06;103567.56;;;2.08;73.60
29163;BME280;20331;53.144;8.208;2023-02-08T21:22:28;103556.47;;;2.08;72.28
29163;BME280;20331;53.144;8.208;2023-02-08T21:32:49;103554.34;;;1.99;71.54
29163;BME280;20331;53.144;8.208;2023-02-08T21:43:11;103525.81;;;1.90;72.17
29163;BME280;20331;53.144;8.208;2023-02-08T21:53:32;103522.97;;;1.84;72.79
29163;BME280;20331;53.144;8.208;2023-02-08T22:04:12;103503.34;;;1.83;72.46
29163;BME280;20331;53.144;8.208;2023-02-08T22:14:34;103486.13;;;1.79;72.16
29163;BME280;20331;53.144;8.208;2023-02-08T22:24:56;103485.69;;;1.70;72.45
29163;BME280;20331;53.144;8.208;2023-02-08T22:35:17;103476.19;;;1.67;73.68
29163;BME280;20331;53.144;8.208;2023-02-08T22:45:38;103480.16;;;1.61;73.68
29163;BME280;20331;53.144;8.208;2023-02-08T22:56:02;103461.34;;;1.59;71.17
29163;BME280;20331;53.144;8.208;2023-02-08T23:06:24;103471.94;;;1.50;72.91
29163;BME280;20331;53.144;8.208;2023-02-08T23:16:45;103456.56;;;1.49;74.14
29163;BME280;20331;53.144;8.208;2023-02-08T23:27:07;103450.38;;;1.44;71.43
29163;BME280;20331;53.144;8.208;2023-02-08T23:37:28;103445.41;;;1.47;73.29
29163;BME280;20331;53.144;8.208;2023-02-08T23:47:49;103443.28;;;1.38;72.96
29163;BME280;20331;53.144;8.208;2023-02-08T23:58:11;103432.72;;;1.31;73.13
